sensor_id;sensor_type;location;lat;lon;timestamp;pressure;altitude;pressure_sealevel;temperature;humidity
74659;BME280;63186;51.204;6.536;2022-12-20T00:00:52;101135.81;;;10.64;77.71
74659;BME280;63186;51.204;6.536;2022-12-20T00:03:17;101136.50;;;10.56;77.88
74659;BME280;63186;51.204;6.536;2022-12-20T00:05:43;101131.59;;;10.53;77.65
74659;BME280;63186;51.204;6.536;2022-12-20T00:08:09;101128.34;;;10.51;77.89
74659;BME280;63186;51.204;6.536;2022-12-20T00:10:38;101136.06;;;10.49;77.97
74659;BME280;63186;51.204;6.536;2022-12-20T00:13:04;101135.63;;;10.42;77.87
74659;BME280;63186;51.204;6.536;2022-12-20T00:15:30;101132.22;;;10.50;77.63
74659;BME280;63186;51.204;6.536;2022-12-20T00:17:56;101133.44;;;10.44;78.17
74659;BME280;63186;51.204;6.536;2022-12-20T00:20:21;101128.06;;;10.33;78.50
74659;BME280;63186;51.204;6.536;2022-12-20T00:22:46;101131.44;;;10.30;78.64
74659;BME280;63186;51.204;6.536;2022-12-20T00:25:11;101113.66;;;10.23;78.66
74659;BME280;63186;51.204;6.536;2022-12-20T00:27:37;101122.13;;;10.26;78.63
74659;BME280;63186;51.204;6.536;2022-12-20T00:30:03;101115.75;;;10.31;78.54
74659;BME280;63186;51.204;6.536;2022-12-20T00:32:28;101112.69;;;10.32;78.31
74659;BME280;63186;51.204;6.536;2022-12-20T00:34:53;101109.84;;;10.38;78.09
74659;BME280;63186;51.204;6.536;2022-12-20T00:37:19;101120.06;;;10.37;77.95
74659;BME280;63186;51.204;6.536;2022-12-20T00:39:44;101119.94;;;10.42;77.61
74659;BME280;63186;51.204;6.536;2022-12-20T00:42:09;101129.00;;;10.43;77.48
74659;BME280;63186;51.204;6.536;2022-12-20T00:44:35;101115.25;;;10.43;77.69
74659;BME280;63186;51.204;6.536;2022-12-20T00:47:00;101117.19;;;10.42;77.66
74659;BME280;63186;51.204;6.536;2022-12-20T00:49:25;101108.34;;;10.45;77.43
74659;BME280;63186;51.204;6.536;2022-12-20T00:51:50;101100.91;;;10.46;77.28
74659;BME280;63186;51.204;6.536;2022-12-20T00:54:16;101104.97;;;10.48;77.23
74659;BME280;63186;51.204;6.536;2022-12-20T00:56:41;101101.94;;;10.50;77.11
74659;BME280;63186;51.204;6.536;2022-12-20T00:59:06;101092.72;;;10.41;77.05
74659;BME280;63186;51.204;6.536;2022-12-20T01:01:31;101095.16;;;10.42;77.26
74659;BME280;63186;51.204;6.536;2022-12-20T01:03:59;101093.53;;;10.41;77.11
74659;BME280;63186;51.204;6.536;2022-12-20T01:06:25;101081.41;;;10.42;77.05
74659;BME280;63186;51.204;6.536;2022-12-20T01:08:52;101097.03;;;10.47;76.95
74659;BME280;63186;51.204;6.536;2022-12-20T01:11:26;101101.50;;;10.43;76.40
74659;BME280;63186;51.204;6.536;2022-12-20T01:13:55;101099.59;;;10.43;76.93
74659;BME280;63186;51.204;6.536;2022-12-20T01:16:24;101102.50;;;10.33;77.40
74659;BME280;63186;51.204;6.536;2022-12-20T01:18:50;101099.63;;;10.24;77.59
74659;BME280;63186;51.204;6.536;2022-12-20T01:21:18;101098.25;;;10.22;77.55
74659;BME280;63186;51.204;6.536;2022-12-20T01:23:44;101097.50;;;10.16;77.83
74659;BME280;63186;51.204;6.536;2022-12-20T01:26:12;101097.59;;;10.11;78.16
74659;BME280;63186;51.204;6.536;2022-12-20T01:28:39;101096.88;;;10.05;78.13
74659;BME280;63186;51.204;6.536;2022-12-20T01:31:07;101088.06;;;10.03;78.13
74659;BME280;63186;51.204;6.536;2022-12-20T01:33:33;101091.44;;;10.00;78.41
74659;BME280;63186;51.204;6.536;2022-12-20T01:36:00;101093.88;;;10.02;78.21
74659;BME280;63186;51.204;6.536;2022-12-20T01:38:26;101089.00;;;9.99;78.40
74659;BME280;63186;51.204;6.536;2022-12-20T01:40:52;101090.94;;;9.98;78.34
74659;BME280;63186;51.204;6.536;2022-12-20T01:43:18;101097.25;;;9.99;78.49
74659;BME280;63186;51.204;6.536;2022-12-20T01:45:44;101091.00;;;9.93;78.38
74659;BME280;63186;51.204;6.536;2022-12-20T01:48:12;101094.25;;;9.95;78.50
74659;BME280;63186;51.204;6.536;2022-12-20T01:50:38;101093.25;;;9.91;78.50
74659;BME280;63186;51.204;6.536;2022-12-20T01:53:04;101088.56;;;9.92;78.72
74659;BME280;63186;51.204;6.536;2022-12-20T01:55:30;101076.00;;;9.86;78.77
74659;BME280;63186;51.204;6.536;2022-12-20T02:00:22;101074.38;;;9.85;78.94
74659;BME280;63186;51.204;6.536;2022-12-20T02:02:48;101070.38;;;9.91;78.86
74659;BME280;63186;51.204;6.536;2022-12-20T02:05:16;101069.81;;;9.94;78.56
74659;BME280;63186;51.204;6.536;2022-12-20T02:07:42;101065.44;;;9.93;78.65
74659;BME280;63186;51.204;6.536;2022-12-20T02:10:10;101059.94;;;9.93;78.66
74659;BME280;63186;51.204;6.536;2022-12-20T02:12:41;101056.06;;;9.94;78.52
74659;BME280;63186;51.204;6.536;2022-12-20T02:15:48;101061.56;;;9.94;78.31
74659;BME280;63186;51.204;6.536;2022-12-20T02:18:31;101053.81;;;9.96;78.17
74659;BME280;63186;51.204;6.536;2022-12-20T02:23:58;101048.50;;;10.18;77.76
74659;BME280;63186;51.204;6.536;2022-12-20T02:32:39;101035.34;;;10.15;78.21
74659;BME280;63186;51.204;6.536;2022-12-20T02:35:08;101043.53;;;10.20;78.14
74659;BME280;63186;51.204;6.536;2022-12-20T02:37:34;101047.16;;;10.16;78.43
74659;BME280;63186;51.204;6.536;2022-12-20T02:39:59;101064.13;;;10.23;78.01
74659;BME280;63186;51.204;6.536;2022-12-20T02:42:25;101071.28;;;10.24;78.09
74659;BME280;63186;51.204;6.536;2022-12-20T02:44:57;101069.09;;;10.21;78.03
74659;BME280;63186;51.204;6.536;2022-12-20T02:50:39;101069.47;;;10.14;78.97
74659;BME280;63186;51.204;6.536;2022-12-20T02:53:08;101068.16;;;10.12;79.02
74659;BME280;63186;51.204;6.536;2022-12-20T02:55:52;101073.34;;;10.13;79.15
74659;BME280;63186;51.204;6.536;2022-12-20T02:58:50;101072.91;;;10.06;79.58
74659;BME280;63186;51.204;6.536;2022-12-20T03:01:22;101074.50;;;9.93;80.16
74659;BME280;63186;51.204;6.536;2022-12-20T03:03:50;101073.91;;;9.77;80.82
74659;BME280;63186;51.204;6.536;2022-12-20T03:06:16;101073.25;;;9.67;81.24
74659;BME280;63186;51.204;6.536;2022-12-20T03:08:41;101075.00;;;9.58;81.88
74659;BME280;63186;51.204;6.536;2022-12-20T03:11:07;101068.78;;;9.52;82.35
74659;BME280;63186;51.204;6.536;2022-12-20T03:13:32;101077.09;;;9.47;82.91
74659;BME280;63186;51.204;6.536;2022-12-20T03:15:57;101063.78;;;9.35;82.96
74659;BME280;63186;51.204;6.536;2022-12-20T03:18:23;101064.22;;;9.23;83.84
74659;BME280;63186;51.204;6.536;2022-12-20T03:20:48;101055.06;;;9.09;84.53
74659;BME280;63186;51.204;6.536;2022-12-20T03:23:13;101048.03;;;8.98;85.39
74659;BME280;63186;51.204;6.536;2022-12-20T03:25:38;101053.13;;;8.86;85.88
74659;BME280;63186;51.204;6.536;2022-12-20T03:28:04;101044.16;;;8.80;86.00
74659;BME280;63186;51.204;6.536;2022-12-20T03:30:29;101050.22;;;8.77;86.38
74659;BME280;63186;51.204;6.536;2022-12-20T03:32:54;101051.97;;;8.68;86.44
74659;BME280;63186;51.204;6.536;2022-12-20T03:35:20;101055.13;;;8.56;86.97
74659;BME280;63186;51.204;6.536;2022-12-20T03:37:45;101059.00;;;8.50;87.72
74659;BME280;63186;51.204;6.536;2022-12-20T03:40:11;101059.09;;;8.40;88.48
74659;BME280;63186;51.204;6.536;2022-12-20T03:42:36;101057.47;;;8.39;88.03
74659;BME280;63186;51.204;6.536;2022-12-20T03:45:02;101062.47;;;8.27;89.37
74659;BME280;63186;51.204;6.536;2022-12-20T03:47:27;101061.72;;;8.21;89.11
74659;BME280;63186;51.204;6.536;2022-12-20T03:49:52;101071.38;;;8.13;89.21
74659;BME280;63186;51.204;6.536;2022-12-20T03:52:18;101055.25;;;8.07;89.89
74659;BME280;63186;51.204;6.536;2022-12-20T03:54:43;101065.19;;;8.03;90.20
74659;BME280;63186;51.204;6.536;2022-12-20T03:57:09;101048.13;;;8.06;90.25
74659;BME280;63186;51.204;6.536;2022-12-20T03:59:34;101042.97;;;7.99;91.11
74659;BME280;63186;51.204;6.536;2022-12-20T04:02:00;101039.38;;;8.04;90.94
74659;BME280;63186;51.204;6.536;2022-12-20T04:04:26;101038.84;;;8.02;90.94
74659;BME280;63186;51.204;6.536;2022-12-20T04:06:51;101041.88;;;8.00;90.84
74659;BME280;63186;51.204;6.536;2022-12-20T04:09:16;101047.34;;;8.00;91.05
74659;BME280;63186;51.204;6.536;2022-12-20T04:11:41;101044.91;;;7.99;91.73
74659;BME280;63186;51.204;6.536;2022-12-20T04:14:07;101050.38;;;7.99;91.27
74659;BME280;63186;51.204;6.536;2022-12-20T04:16:33;101050.97;;;7.96;91.66
74659;BME280;63186;51.204;6.536;2022-12-20T04:18:58;101056.50;;;7.91;91.84
74659;BME280;63186;51.204;6.536;2022-12-20T04:21:26;101053.47;;;7.92;91.66
74659;BME280;63186;51.204;6.536;2022-12-20T04:23:51;101056.19;;;7.92;91.50
74659;BME280;63186;51.204;6.536;2022-12-20T04:26:17;101041.19;;;7.84;91.98
74659;BME280;63186;51.204;6.536;2022-12-20T04:28:42;101034.88;;;7.84;91.96
74659;BME280;63186;51.204;6.536;2022-12-20T04:31:08;101044.22;;;7.83;91.96
74659;BME280;63186;51.204;6.536;2022-12-20T04:33:35;101047.50;;;7.80;92.34
74659;BME280;63186;51.204;6.536;2022-12-20T04:36:00;101042.88;;;7.75;92.69
74659;BME280;63186;51.204;6.536;2022-12-20T04:38:25;101037.97;;;7.72;93.03
74659;BME280;63186;51.204;6.536;2022-12-20T04:40:52;101033.34;;;7.68;93.56
74659;BME280;63186;51.204;6.536;2022-12-20T04:43:18;101022.09;;;7.69;93.70
74659;BME280;63186;51.204;6.536;2022-12-20T04:45:45;101020.75;;;7.67;93.60
74659;BME280;63186;51.204;6.536;2022-12-20T04:48:11;101018.00;;;7.67;93.37
74659;BME280;63186;51.204;6.536;2022-12-20T04:50:36;101022.38;;;7.68;93.79
74659;BME280;63186;51.204;6.536;2022-12-20T04:53:02;101026.50;;;7.70;93.47
74659;BME280;63186;51.204;6.536;2022-12-20T04:55:45;101016.63;;;7.69;93.72
74659;BME280;63186;51.204;6.536;2022-12-20T04:58:10;101005.09;;;7.72;94.13
74659;BME280;63186;51.204;6.536;2022-12-20T05:00:36;101005.91;;;7.73;94.11
74659;BME280;63186;51.204;6.536;2022-12-20T05:03:01;101009.19;;;7.75;93.55
74659;BME280;63186;51.204;6.536;2022-12-20T05:05:27;101016.03;;;7.77;93.49
74659;BME280;63186;51.204;6.536;2022-12-20T05:07:53;101008.91;;;7.76;93.15
74659;BME280;63186;51.204;6.536;2022-12-20T05:10:18;100985.91;;;7.72;93.34
74659;BME280;63186;51.204;6.536;2022-12-20T05:12:44;100980.41;;;7.77;92.98
74659;BME280;63186;51.204;6.536;2022-12-20T05:15:10;100985.06;;;7.77;93.15
74659;BME280;63186;51.204;6.536;2022-12-20T05:17:35;100982.03;;;7.78;93.32
74659;BME280;63186;51.204;6.536;2022-12-20T05:20:01;100982.25;;;7.82;93.24
74659;BME280;63186;51.204;6.536;2022-12-20T05:22:26;100982.84;;;7.79;93.03
74659;BME280;63186;51.204;6.536;2022-12-20T05:25:11;100979.00;;;7.80;92.83
74659;BME280;63186;51.204;6.536;2022-12-20T05:27:55;100979.00;;;7.80;92.64
74659;BME280;63186;51.204;6.536;2022-12-20T05:30:21;100983.66;;;7.79;92.88
74659;BME280;63186;51.204;6.536;2022-12-20T05:32:46;100977.88;;;7.81;92.92
74659;BME280;63186;51.204;6.536;2022-12-20T05:35:11;100973.53;;;7.80;92.98
74659;BME280;63186;51.204;6.536;2022-12-20T05:37:37;100981.50;;;7.76;92.63
74659;BME280;63186;51.204;6.536;2022-12-20T05:40:02;100980.66;;;7.76;92.83
74659;BME280;63186;51.204;6.536;2022-12-20T05:42:29;100989.72;;;7.76;92.92
74659;BME280;63186;51.204;6.536;2022-12-20T05:44:54;100974.66;;;7.74;92.65
74659;BME280;63186;51.204;6.536;2022-12-20T05:47:19;100962.59;;;7.75;92.84
74659;BME280;63186;51.204;6.536;2022-12-20T05:49:45;100959.03;;;7.74;92.67
74659;BME280;63186;51.204;6.536;2022-12-20T05:52:10;100954.97;;;7.72;92.65
74659;BME280;63186;51.204;6.536;2022-12-20T05:54:35;100953.03;;;7.72;92.71
74659;BME280;63186;51.204;6.536;2022-12-20T05:57:00;100960.97;;;7.74;92.47
74659;BME280;63186;51.204;6.536;2022-12-20T05:59:26;100965.34;;;7.75;92.51
74659;BME280;63186;51.204;6.536;2022-12-20T06:01:51;100957.41;;;7.73;92.61
74659;BME280;63186;51.204;6.536;2022-12-20T06:04:16;100957.94;;;7.75;92.41
74659;BME280;63186;51.204;6.536;2022-12-20T06:06:41;100960.16;;;7.73;92.48
74659;BME280;63186;51.204;6.536;2022-12-20T06:09:07;100963.72;;;7.69;92.47
74659;BME280;63186;51.204;6.536;2022-12-20T06:11:32;100961.81;;;7.69;92.47
74659;BME280;63186;51.204;6.536;2022-12-20T06:13:58;100955.28;;;7.65;92.25
74659;BME280;63186;51.204;6.536;2022-12-20T06:16:23;100950.09;;;7.64;92.25
74659;BME280;63186;51.204;6.536;2022-12-20T06:18:49;100956.09;;;7.66;92.49
74659;BME280;63186;51.204;6.536;2022-12-20T06:21:15;100961.28;;;7.67;92.40
74659;BME280;63186;51.204;6.536;2022-12-20T06:23:40;100952.25;;;7.67;92.19
74659;BME280;63186;51.204;6.536;2022-12-20T06:26:05;100952.53;;;7.65;92.34
74659;BME280;63186;51.204;6.536;2022-12-20T06:28:34;100934.47;;;7.64;92.28
74659;BME280;63186;51.204;6.536;2022-12-20T06:30:59;100945.66;;;7.68;92.36
74659;BME280;63186;51.204;6.536;2022-12-20T06:33:25;100936.00;;;7.75;92.10
74659;BME280;63186;51.204;6.536;2022-12-20T06:35:51;100926.03;;;7.89;91.43
74659;BME280;63186;51.204;6.536;2022-12-20T06:38:16;100929.00;;;7.93;91.20
74659;BME280;63186;51.204;6.536;2022-12-20T06:40:42;100918.81;;;7.99;90.70
74659;BME280;63186;51.204;6.536;2022-12-20T06:43:08;100913.84;;;8.01;90.33
74659;BME280;63186;51.204;6.536;2022-12-20T06:45:33;100916.31;;;8.02;90.27
74659;BME280;63186;51.204;6.536;2022-12-20T06:47:58;100918.75;;;8.04;90.38
74659;BME280;63186;51.204;6.536;2022-12-20T06:50:24;100916.00;;;8.04;90.61
74659;BME280;63186;51.204;6.536;2022-12-20T06:52:49;100923.69;;;8.02;90.40
74659;BME280;63186;51.204;6.536;2022-12-20T06:55:14;100921.72;;;8.07;90.03
74659;BME280;63186;51.204;6.536;2022-12-20T06:57:40;100927.50;;;8.06;90.12
74659;BME280;63186;51.204;6.536;2022-12-20T07:00:06;100909.41;;;8.05;89.98
74659;BME280;63186;51.204;6.536;2022-12-20T07:02:32;100911.91;;;8.01;90.34
74659;BME280;63186;51.204;6.536;2022-12-20T07:04:58;100902.94;;;7.96;90.36
74659;BME280;63186;51.204;6.536;2022-12-20T07:07:23;100907.31;;;7.97;90.04
74659;BME280;63186;51.204;6.536;2022-12-20T07:09:48;100905.38;;;7.97;90.45
74659;BME280;63186;51.204;6.536;2022-12-20T07:12:13;100896.28;;;8.02;90.09
74659;BME280;63186;51.204;6.536;2022-12-20T07:14:39;100902.31;;;8.04;89.91
74659;BME280;63186;51.204;6.536;2022-12-20T07:17:04;100895.94;;;8.08;90.13
74659;BME280;63186;51.204;6.536;2022-12-20T07:19:30;100895.13;;;8.08;90.11
74659;BME280;63186;51.204;6.536;2022-12-20T07:21:55;100890.22;;;8.05;89.80
74659;BME280;63186;51.204;6.536;2022-12-20T07:24:20;100894.59;;;8.06;89.96
74659;BME280;63186;51.204;6.536;2022-12-20T07:26:46;100889.63;;;8.08;89.86
74659;BME280;63186;51.204;6.536;2022-12-20T07:29:12;100891.81;;;8.11;89.89
74659;BME280;63186;51.204;6.536;2022-12-20T07:31:37;100892.91;;;8.10;89.75
74659;BME280;63186;51.204;6.536;2022-12-20T07:34:02;100876.47;;;8.10;89.60
74659;BME280;63186;51.204;6.536;2022-12-20T07:36:28;100883.31;;;8.07;89.88
74659;BME280;63186;51.204;6.536;2022-12-20T07:38:53;100883.94;;;8.04;89.86
74659;BME280;63186;51.204;6.536;2022-12-20T07:41:18;100880.38;;;8.04;89.59
74659;BME280;63186;51.204;6.536;2022-12-20T07:43:44;100884.78;;;8.00;89.85
74659;BME280;63186;51.204;6.536;2022-12-20T07:46:09;100891.09;;;8.00;89.87
74659;BME280;63186;51.204;6.536;2022-12-20T07:48:36;100893.81;;;8.00;89.78
74659;BME280;63186;51.204;6.536;2022-12-20T07:51:05;100897.97;;;7.98;89.70
74659;BME280;63186;51.204;6.536;2022-12-20T07:53:33;100905.69;;;7.96;89.86
74659;BME280;63186;51.204;6.536;2022-12-20T07:56:01;100913.03;;;8.00;89.89
74659;BME280;63186;51.204;6.536;2022-12-20T07:58:28;100905.69;;;7.96;89.93
74659;BME280;63186;51.204;6.536;2022-12-20T08:00:54;100900.75;;;7.93;90.03
74659;BME280;63186;51.204;6.536;2022-12-20T08:03:23;100907.66;;;7.90;90.18
74659;BME280;63186;51.204;6.536;2022-12-20T08:05:53;100902.44;;;7.88;90.19
74659;BME280;63186;51.204;6.536;2022-12-20T08:08:20;100903.00;;;7.91;90.13
74659;BME280;63186;51.204;6.536;2022-12-20T08:10:46;100886.50;;;7.96;90.01
74659;BME280;63186;51.204;6.536;2022-12-20T08:13:12;100897.69;;;7.99;89.92
74659;BME280;63186;51.204;6.536;2022-12-20T08:15:37;100892.44;;;8.03;89.61
74659;BME280;63186;51.204;6.536;2022-12-20T08:18:03;100886.38;;;8.06;89.65
74659;BME280;63186;51.204;6.536;2022-12-20T08:20:30;100886.88;;;8.08;89.62
74659;BME280;63186;51.204;6.536;2022-12-20T08:22:55;100884.16;;;8.08;89.42
74659;BME280;63186;51.204;6.536;2022-12-20T08:25:20;100885.97;;;8.18;89.30
74659;BME280;63186;51.204;6.536;2022-12-20T08:27:46;100883.44;;;8.21;89.42
74659;BME280;63186;51.204;6.536;2022-12-20T08:30:11;100888.06;;;8.26;88.96
74659;BME280;63186;51.204;6.536;2022-12-20T08:32:37;100883.94;;;8.28;89.02
74659;BME280;63186;51.204;6.536;2022-12-20T08:35:03;100896.25;;;8.31;88.79
74659;BME280;63186;51.204;6.536;2022-12-20T08:37:29;100889.94;;;8.30;88.72
74659;BME280;63186;51.204;6.536;2022-12-20T08:39:54;100899.03;;;8.26;88.75
74659;BME280;63186;51.204;6.536;2022-12-20T08:42:19;100899.53;;;8.28;88.64
74659;BME280;63186;51.204;6.536;2022-12-20T08:44:44;100900.44;;;8.23;88.75
74659;BME280;63186;51.204;6.536;2022-12-20T08:47:10;100902.13;;;8.19;89.09
74659;BME280;63186;51.204;6.536;2022-12-20T08:49:35;100893.69;;;8.15;89.20
74659;BME280;63186;51.204;6.536;2022-12-20T08:52:00;100895.88;;;8.13;89.16
74659;BME280;63186;51.204;6.536;2022-12-20T08:54:26;100895.25;;;8.22;89.20
74659;BME280;63186;51.204;6.536;2022-12-20T08:56:51;100888.38;;;8.24;88.83
74659;BME280;63186;51.204;6.536;2022-12-20T08:59:17;100884.56;;;8.20;88.89
74659;BME280;63186;51.204;6.536;2022-12-20T09:01:42;100891.66;;;8.21;88.80
74659;BME280;63186;51.204;6.536;2022-12-20T09:04:09;100902.59;;;8.26;88.80
74659;BME280;63186;51.204;6.536;2022-12-20T09:06:34;100888.56;;;8.28;88.75
74659;BME280;63186;51.204;6.536;2022-12-20T09:09:00;100902.03;;;8.29;88.69
74659;BME280;63186;51.204;6.536;2022-12-20T09:11:26;100892.09;;;8.33;88.79
74659;BME280;63186;51.204;6.536;2022-12-20T09:13:54;100888.53;;;8.33;89.02
74659;BME280;63186;51.204;6.536;2022-12-20T09:16:22;100897.56;;;8.33;89.26
74659;BME280;63186;51.204;6.536;2022-12-20T09:18:52;100899.28;;;8.29;89.47
74659;BME280;63186;51.204;6.536;2022-12-20T09:21:18;100898.16;;;8.30;89.68
74659;BME280;63186;51.204;6.536;2022-12-20T09:23:44;100898.47;;;8.29;89.74
74659;BME280;63186;51.204;6.536;2022-12-20T09:26:12;100889.94;;;8.30;89.97
74659;BME280;63186;51.204;6.536;2022-12-20T09:28:39;100883.34;;;8.31;90.25
74659;BME280;63186;51.204;6.536;2022-12-20T09:31:06;100887.75;;;8.27;90.12
74659;BME280;63186;51.204;6.536;2022-12-20T09:33:33;100891.06;;;8.29;90.53
74659;BME280;63186;51.204;6.536;2022-12-20T09:35:59;100883.34;;;8.31;90.42
74659;BME280;63186;51.204;6.536;2022-12-20T09:38:26;100881.69;;;8.35;90.13
74659;BME280;63186;51.204;6.536;2022-12-20T09:41:01;100886.56;;;8.38;90.52
74659;BME280;63186;51.204;6.536;2022-12-20T09:43:27;100880.78;;;8.40;90.10
74659;BME280;63186;51.204;6.536;2022-12-20T09:45:56;100880.22;;;8.43;90.08
74659;BME280;63186;51.204;6.536;2022-12-20T09:48:25;100879.91;;;8.45;90.24
74659;BME280;63186;51.204;6.536;2022-12-20T09:51:16;100875.41;;;8.54;89.82
74659;BME280;63186;51.204;6.536;2022-12-20T09:56:31;100888.25;;;8.58;89.62
74659;BME280;63186;51.204;6.536;2022-12-20T09:59:05;100881.06;;;8.62;89.35
74659;BME280;63186;51.204;6.536;2022-12-20T10:01:33;100882.19;;;8.61;89.73
74659;BME280;63186;51.204;6.536;2022-12-20T10:04:05;100885.94;;;8.65;89.42
74659;BME280;63186;51.204;6.536;2022-12-20T10:14:55;100879.34;;;8.85;88.83
74659;BME280;63186;51.204;6.536;2022-12-20T10:17:56;100880.47;;;8.84;88.91
74659;BME280;63186;51.204;6.536;2022-12-20T10:20:52;100873.66;;;8.82;89.15
74659;BME280;63186;51.204;6.536;2022-12-20T10:23:38;100865.72;;;8.80;89.26
74659;BME280;63186;51.204;6.536;2022-12-20T10:26:09;100858.81;;;8.83;89.20
74659;BME280;63186;51.204;6.536;2022-12-20T10:28:35;100857.69;;;8.84;89.50
74659;BME280;63186;51.204;6.536;2022-12-20T10:31:04;100851.34;;;8.88;89.35
74659;BME280;63186;51.204;6.536;2022-12-20T10:33:31;100850.41;;;8.93;89.02
74659;BME280;63186;51.204;6.536;2022-12-20T10:36:26;100842.91;;;8.98;88.49
74659;BME280;63186;51.204;6.536;2022-12-20T10:38:54;100827.56;;;8.97;88.58
74659;BME280;63186;51.204;6.536;2022-12-20T10:41:26;100830.75;;;9.05;88.56
74659;BME280;63186;51.204;6.536;2022-12-20T10:43:57;100830.59;;;9.15;88.34
74659;BME280;63186;51.204;6.536;2022-12-20T10:46:35;100832.97;;;9.21;87.78
74659;BME280;63186;51.204;6.536;2022-12-20T10:51:53;100827.28;;;9.32;87.51
74659;BME280;63186;51.204;6.536;2022-12-20T10:54:39;100819.97;;;9.27;87.58
74659;BME280;63186;51.204;6.536;2022-12-20T10:57:18;100825.88;;;9.34;86.64
74659;BME280;63186;51.204;6.536;2022-12-20T10:59:51;100831.28;;;9.39;87.55
74659;BME280;63186;51.204;6.536;2022-12-20T11:02:30;100823.56;;;9.41;86.78
74659;BME280;63186;51.204;6.536;2022-12-20T11:05:01;100814.28;;;9.37;87.21
74659;BME280;63186;51.204;6.536;2022-12-20T11:07:30;100810.41;;;9.38;87.40
74659;BME280;63186;51.204;6.536;2022-12-20T11:10:00;100804.31;;;9.41;86.75
74659;BME280;63186;51.204;6.536;2022-12-20T11:12:26;100806.25;;;9.41;87.55
74659;BME280;63186;51.204;6.536;2022-12-20T11:15:08;100803.69;;;9.44;87.04
74659;BME280;63186;51.204;6.536;2022-12-20T11:17:43;100801.78;;;9.45;87.05
74659;BME280;63186;51.204;6.536;2022-12-20T11:20:21;100790.28;;;9.57;86.78
74659;BME280;63186;51.204;6.536;2022-12-20T11:22:59;100797.44;;;9.71;86.73
74659;BME280;63186;51.204;6.536;2022-12-20T11:28:49;100783.38;;;10.14;84.80
74659;BME280;63186;51.204;6.536;2022-12-20T11:31:40;100791.53;;;10.33;84.78
74659;BME280;63186;51.204;6.536;2022-12-20T11:36:52;100788.72;;;10.60;83.77
74659;BME280;63186;51.204;6.536;2022-12-20T11:44:54;100766.75;;;10.83;83.19
74659;BME280;63186;51.204;6.536;2022-12-20T11:50:13;100773.44;;;10.91;82.22
74659;BME280;63186;51.204;6.536;2022-12-20T11:52:50;100770.56;;;10.96;82.08
74659;BME280;63186;51.204;6.536;2022-12-20T11:55:23;100771.88;;;10.98;83.04
74659;BME280;63186;51.204;6.536;2022-12-20T11:58:00;100763.78;;;11.02;82.14
74659;BME280;63186;51.204;6.536;2022-12-20T12:00:27;100761.91;;;11.11;82.41
74659;BME280;63186;51.204;6.536;2022-12-20T12:02:56;100767.22;;;11.30;80.99
74659;BME280;63186;51.204;6.536;2022-12-20T12:05:40;100756.69;;;11.32;79.53
74659;BME280;63186;51.204;6.536;2022-12-20T12:08:13;100761.38;;;11.31;79.94
74659;BME280;63186;51.204;6.536;2022-12-20T12:10:44;100747.78;;;11.35;79.99
74659;BME280;63186;51.204;6.536;2022-12-20T12:13:20;100761.41;;;11.40;80.38
74659;BME280;63186;51.204;6.536;2022-12-20T12:15:54;100767.00;;;11.49;79.25
74659;BME280;63186;51.204;6.536;2022-12-20T12:18:24;100757.38;;;11.46;80.35
74659;BME280;63186;51.204;6.536;2022-12-20T12:21:23;100781.03;;;11.38;81.12
74659;BME280;63186;51.204;6.536;2022-12-20T12:24:18;100772.84;;;11.25;82.54
74659;BME280;63186;51.204;6.536;2022-12-20T12:26:46;100775.34;;;11.12;83.15
74659;BME280;63186;51.204;6.536;2022-12-20T12:29:17;100762.16;;;11.01;84.95
74659;BME280;63186;51.204;6.536;2022-12-20T12:45:25;100751.78;;;10.39;89.55
74659;BME280;63186;51.204;6.536;2022-12-20T12:48:13;100753.53;;;10.35;91.56
74659;BME280;63186;51.204;6.536;2022-12-20T12:50:47;100749.56;;;10.27;91.03
74659;BME280;63186;51.204;6.536;2022-12-20T12:53:19;100742.03;;;10.19;91.70
74659;BME280;63186;51.204;6.536;2022-12-20T12:55:47;100736.13;;;10.12;91.19
74659;BME280;63186;51.204;6.536;2022-12-20T13:00:52;100740.00;;;10.11;92.54
74659;BME280;63186;51.204;6.536;2022-12-20T13:03:39;100731.53;;;10.07;92.25
74659;BME280;63186;51.204;6.536;2022-12-20T13:11:34;100724.59;;;10.10;92.02
74659;BME280;63186;51.204;6.536;2022-12-20T13:24:56;100724.38;;;10.20;91.13
74659;BME280;63186;51.204;6.536;2022-12-20T13:27:28;100730.69;;;10.21;90.87
74659;BME280;63186;51.204;6.536;2022-12-20T13:32:51;100730.00;;;10.15;91.09
74659;BME280;63186;51.204;6.536;2022-12-20T13:37:55;100729.53;;;9.99;91.27
74659;BME280;63186;51.204;6.536;2022-12-20T13:40:41;100735.84;;;10.00;91.85
74659;BME280;63186;51.204;6.536;2022-12-20T13:43:22;100726.94;;;10.03;91.56
74659;BME280;63186;51.204;6.536;2022-12-20T13:51:15;100732.38;;;9.94;91.96
74659;BME280;63186;51.204;6.536;2022-12-20T13:53:50;100724.53;;;9.88;92.13
74659;BME280;63186;51.204;6.536;2022-12-20T13:56:33;100719.53;;;9.90;92.27
74659;BME280;63186;51.204;6.536;2022-12-20T13:59:12;100731.16;;;9.87;92.16
74659;BME280;63186;51.204;6.536;2022-12-20T14:01:47;100717.34;;;9.78;92.21
74659;BME280;63186;51.204;6.536;2022-12-20T14:04:13;100717.63;;;9.76;92.35
74659;BME280;63186;51.204;6.536;2022-12-20T14:06:38;100729.13;;;9.78;92.10
74659;BME280;63186;51.204;6.536;2022-12-20T14:09:25;100732.97;;;9.77;92.85
74659;BME280;63186;51.204;6.536;2022-12-20T14:11:51;100729.75;;;9.75;92.26
74659;BME280;63186;51.204;6.536;2022-12-20T14:14:16;100731.88;;;9.78;92.35
74659;BME280;63186;51.204;6.536;2022-12-20T14:16:41;100734.81;;;9.82;92.18
74659;BME280;63186;51.204;6.536;2022-12-20T14:19:13;100729.31;;;9.82;92.16
74659;BME280;63186;51.204;6.536;2022-12-20T14:21:41;100730.53;;;9.90;92.09
74659;BME280;63186;51.204;6.536;2022-12-20T14:24:13;100721.69;;;9.93;91.93
74659;BME280;63186;51.204;6.536;2022-12-20T14:26:43;100719.25;;;9.91;91.86
74659;BME280;63186;51.204;6.536;2022-12-20T14:29:19;100713.84;;;9.86;92.37
74659;BME280;63186;51.204;6.536;2022-12-20T14:31:48;100708.94;;;9.83;91.99